createdAt,value
2023-02-09T00:02:24.823Z,13.60
2023-02-09T00:05:34.493Z,12.57
2023-02-09T00:08:43.586Z,9.30
2023-02-09T00:12:09.410Z,10.70
2023-02-09T00:15:17.622Z,12.17
2023-02-09T00:18:28.469Z,10.53
2023-02-09T00:21:39.203Z,8.63
2023-02-09T00:24:47.409Z,13.40
2023-02-09T00:27:55.601Z,11.27
2023-02-09T00:31:09.684Z,8.63
2023-02-09T00:34:21.331Z,13.57
2023-02-09T00:37:31.029Z,11.50
2023-02-09T00:40:40.716Z,11.53
2023-02-09T00:43:49.311Z,12.43
2023-02-09T00:46:57.743Z,12.87
2023-02-09T00:50:08.435Z,14.63
2023-02-09T00:53:17.953Z,10.87
2023-02-09T00:56:26.271Z,10.23
2023-02-09T00:59:36.270Z,16.03
2023-02-09T01:02:44.394Z,10.97
2023-02-09T01:05:53.357Z,12.10
2023-02-09T01:09:03.595Z,12.63
2023-02-09T01:12:12.941Z,10.70
2023-02-09T01:15:21.526Z,10.77
2023-02-09T01:18:29.765Z,10.57
2023-02-09T01:21:38.031Z,11.83
2023-02-09T01:24:47.870Z,9.67
2023-02-09T01:27:57.877Z,13.50
2023-02-09T01:31:07.842Z,12.63
2023-02-09T01:34:19.003Z,12.17
2023-02-09T01:47:49.607Z,9.57
2023-02-09T01:51:01.513Z,11.73
2023-02-09T01:54:15.891Z,8.03
2023-02-09T01:57:32.287Z,9.07
2023-02-09T02:00:40.828Z,8.13
2023-02-09T02:03:50.520Z,12.37
2023-02-09T02:07:11.098Z,9.90
2023-02-09T02:10:20.298Z,21.27
2023-02-09T02:13:28.613Z,11.70
2023-02-09T02:16:53.422Z,8.00
2023-02-09T02:20:47.533Z,8.43
2023-02-09T02:24:41.977Z,8.27
2023-02-09T02:28:02.426Z,9.33
2023-02-09T02:31:53.606Z,14.53
2023-02-09T02:35:10.345Z,14.43
2023-02-09T02:38:34.505Z,10.43
2023-02-09T02:42:10.884Z,10.60
2023-02-09T02:45:33.600Z,9.37
2023-02-09T02:48:48.737Z,10.37
2023-02-09T02:52:03.699Z,10.50
2023-02-09T02:55:16.051Z,12.90
2023-02-09T02:58:29.290Z,12.97
2023-02-09T03:01:47.309Z,11.90
2023-02-09T03:04:59.763Z,12.53
2023-02-09T03:08:08.162Z,10.87
2023-02-09T03:11:17.591Z,11.90
2023-02-09T03:14:44.891Z,13.37
2023-02-09T03:18:11.079Z,10.70
2023-02-09T03:21:33.143Z,13.37
2023-02-09T03:24:49.971Z,14.53
2023-02-09T03:28:04.927Z,9.60
2023-02-09T03:31:14.933Z,9.43
2023-02-09T03:34:23.258Z,11.50
2023-02-09T03:37:33.020Z,10.47
2023-02-09T03:40:41.500Z,10.17
2023-02-09T03:44:07.357Z,8.57
2023-02-09T03:47:15.850Z,12.83
2023-02-09T03:50:24.013Z,15.67
2023-02-09T03:53:36.353Z,13.67
2023-02-09T03:56:44.640Z,11.47
2023-02-09T03:59:52.840Z,12.97
2023-02-09T04:03:00.996Z,13.03
2023-02-09T04:06:09.984Z,14.33
2023-02-09T04:09:19.790Z,14.77
2023-02-09T04:12:27.973Z,11.10
2023-02-09T04:15:36.533Z,11.63
2023-02-09T04:18:44.745Z,13.33
2023-02-09T04:21:53.011Z,12.77
2023-02-09T04:25:10.058Z,11.80
2023-02-09T04:28:18.292Z,13.67
2023-02-09T04:31:26.651Z,11.50
2023-02-09T04:34:34.824Z,10.30
2023-02-09T04:37:42.887Z,14.03
2023-02-09T04:40:55.367Z,13.07
2023-02-09T04:44:03.584Z,14.33
2023-02-09T04:47:11.688Z,11.97
2023-02-09T04:50:19.937Z,10.50
2023-02-09T04:53:29.544Z,12.13
2023-02-09T04:56:39.082Z,11.10
2023-02-09T04:59:46.559Z,9.23
2023-02-09T05:02:56.171Z,29.20
2023-02-09T05:06:07.264Z,19.57
2023-02-09T05:09:15.472Z,14.00
2023-02-09T05:12:25.016Z,8.30
2023-02-09T05:15:33.287Z,11.23
2023-02-09T05:18:41.498Z,11.07
2023-02-09T05:21:49.639Z,9.23
2023-02-09T05:24:57.789Z,11.37
2023-02-09T05:28:08.044Z,10.97
2023-02-09T05:31:16.547Z,9.50
2023-02-09T05:34:25.042Z,12.80
2023-02-09T05:37:33.289Z,8.87
2023-02-09T05:40:41.945Z,11.87
2023-02-09T05:43:52.205Z,10.67
2023-02-09T05:47:00.538Z,10.90
2023-02-09T05:50:09.306Z,6.40
2023-02-09T05:53:17.617Z,10.80
2023-02-09T05:56:26.325Z,10.97
2023-02-09T05:59:35.971Z,10.70
2023-02-09T06:02:44.834Z,10.27
2023-02-09T06:05:53.038Z,9.77
2023-02-09T06:09:02.024Z,8.83
2023-02-09T06:12:10.235Z,10.00
2023-02-09T06:15:21.039Z,10.57
2023-02-09T06:18:29.237Z,9.33
2023-02-09T06:21:37.548Z,9.63
2023-02-09T06:24:45.789Z,14.60
2023-02-09T06:27:53.986Z,14.53
2023-02-09T06:31:04.376Z,14.57
2023-02-09T06:34:12.730Z,12.13
2023-02-09T06:37:20.814Z,9.57
2023-02-09T06:40:29.715Z,6.77
2023-02-09T06:43:38.297Z,6.50
2023-02-09T06:46:48.636Z,10.90
2023-02-09T06:49:56.849Z,7.33
2023-02-09T06:53:06.247Z,6.20
2023-02-09T06:56:17.328Z,7.10
2023-02-09T06:59:28.491Z,6.57
2023-02-09T07:02:38.561Z,10.07
2023-02-09T07:05:46.826Z,5.30
2023-02-09T07:08:55.120Z,9.50
2023-02-09T07:12:03.427Z,7.03
2023-02-09T07:15:13.726Z,5.27
2023-02-09T07:18:27.631Z,5.23
2023-02-09T07:21:39.040Z,6.83
2023-02-09T07:24:49.949Z,8.07
2023-02-09T07:27:58.424Z,6.10
2023-02-09T07:31:09.744Z,6.80
2023-02-09T07:34:19.464Z,4.43
2023-02-09T07:37:27.851Z,3.80
2023-02-09T07:40:39.256Z,7.90
2023-02-09T07:43:47.923Z,7.03
2023-02-09T07:46:59.098Z,6.00
2023-02-09T07:50:10.360Z,5.67
2023-02-09T07:53:18.751Z,4.93
2023-02-09T07:56:28.022Z,5.47
2023-02-09T07:59:36.718Z,6.73
2023-02-09T08:02:46.528Z,6.43
2023-02-09T08:09:33.449Z,6.93
2023-02-09T08:12:55.895Z,4.77
2023-02-09T08:16:08.609Z,8.87
2023-02-09T08:19:24.177Z,5.47
2023-02-09T08:22:37.750Z,5.13
2023-02-09T08:25:51.622Z,5.90
2023-02-09T08:29:00.333Z,9.93
2023-02-09T08:32:08.626Z,20.43
2023-02-09T08:35:18.030Z,5.83
2023-02-09T08:38:27.385Z,10.67
2023-02-09T08:41:40.848Z,6.10
2023-02-09T08:44:49.292Z,7.23
2023-02-09T08:47:57.760Z,6.63
2023-02-09T08:51:07.107Z,5.97
2023-02-09T08:54:15.952Z,8.83
2023-02-09T08:57:41.655Z,6.10
2023-02-09T09:00:51.492Z,10.90
2023-02-09T09:04:00.012Z,9.80
2023-02-09T09:07:08.176Z,7.83
2023-02-09T09:10:16.938Z,10.20
2023-02-09T09:13:29.462Z,7.37
2023-02-09T09:16:39.229Z,3.80
2023-02-09T09:19:52.699Z,2.87
2023-02-09T09:23:02.105Z,6.30
2023-02-09T09:26:10.853Z,11.17
2023-02-09T09:29:20.770Z,4.63
2023-02-09T09:32:29.238Z,4.63
2023-02-09T09:35:38.013Z,3.67
2023-02-09T09:38:46.346Z,4.97
2023-02-09T09:41:59.687Z,5.50
2023-02-09T09:45:20.381Z,3.27
2023-02-09T09:48:39.733Z,5.67
2023-02-09T09:51:53.866Z,10.60
2023-02-09T09:55:06.826Z,3.37
2023-02-09T09:58:20.680Z,3.90
2023-02-09T10:01:34.177Z,5.87
2023-02-09T10:04:42.789Z,2.97
2023-02-09T10:08:00.895Z,10.27
2023-02-09T10:11:14.121Z,6.10
2023-02-09T10:14:23.755Z,4.83
2023-02-09T10:17:33.679Z,6.47
2023-02-09T10:20:47.717Z,5.27
2023-02-09T10:24:13.596Z,3.93
2023-02-09T10:27:30.998Z,3.43
2023-02-09T10:30:39.652Z,4.40
2023-02-09T10:33:56.764Z,5.93
2023-02-09T10:37:27.419Z,2.63
2023-02-09T10:40:42.168Z,4.87
2023-02-09T10:43:53.853Z,3.53
2023-02-09T10:47:28.350Z,8.37
2023-02-09T10:50:53.755Z,7.30
2023-02-09T10:54:07.392Z,9.27
2023-02-09T10:57:29.830Z,3.13
2023-02-09T11:00:49.633Z,14.73
2023-02-09T11:04:02.663Z,5.07
2023-02-09T11:07:18.366Z,3.87
2023-02-09T11:10:31.033Z,5.37
2023-02-09T11:13:43.585Z,6.50
2023-02-09T11:17:18.300Z,8.60
2023-02-09T11:20:33.635Z,5.77
2023-02-09T11:23:56.971Z,3.53
2023-02-09T11:27:21.468Z,6.77
2023-02-09T11:30:57.062Z,4.77
2023-02-09T11:34:19.421Z,3.70
2023-02-09T11:37:44.021Z,6.60
2023-02-09T11:40:57.559Z,5.53
2023-02-09T11:44:12.586Z,6.13
2023-02-09T11:47:29.635Z,6.20
2023-02-09T11:50:52.400Z,4.63
2023-02-09T11:54:08.876Z,6.07
2023-02-09T11:57:35.781Z,3.97
2023-02-09T12:01:01.702Z,6.70
2023-02-09T12:04:24.806Z,5.50
2023-02-09T12:07:42.976Z,5.43
2023-02-09T12:11:09.098Z,7.60
2023-02-09T12:14:47.014Z,5.30
2023-02-09T12:18:01.072Z,5.97
2023-02-09T12:21:10.325Z,4.80
2023-02-09T12:24:40.091Z,6.67
2023-02-09T12:28:18.390Z,5.83
2023-02-09T12:31:29.061Z,6.73
2023-02-09T12:34:42.155Z,5.97
2023-02-09T12:38:19.212Z,6.67
2023-02-09T12:41:30.417Z,4.67
2023-02-09T12:44:40.179Z,7.90
2023-02-09T12:48:01.060Z,6.33
2023-02-09T12:52:07.663Z,6.17
2023-02-09T12:55:23.681Z,5.50
2023-02-09T12:58:41.419Z,7.10
2023-02-09T13:02:15.963Z,7.93
2023-02-09T13:05:30.342Z,6.17
2023-02-09T13:08:49.994Z,4.83
2023-02-09T13:12:11.593Z,6.00
2023-02-09T13:15:20.665Z,8.77
2023-02-09T13:18:39.566Z,7.50
2023-02-09T13:22:02.558Z,14.43
2023-02-09T13:25:21.536Z,7.50
2023-02-09T13:28:31.046Z,6.53
2023-02-09T13:31:43.658Z,8.17
2023-02-09T13:35:01.438Z,6.37
2023-02-09T13:38:18.490Z,6.17
2023-02-09T13:41:38.546Z,7.03
2023-02-09T13:44:51.160Z,6.83
2023-02-09T13:48:02.786Z,5.30
2023-02-09T13:51:19.340Z,5.33
2023-02-09T13:54:28.951Z,5.67
2023-02-09T13:57:40.477Z,7.67
2023-02-09T14:00:53.624Z,8.67
2023-02-09T14:04:13.227Z,5.63
2023-02-09T14:07:25.812Z,7.80
2023-02-09T14:10:36.597Z,7.10
2023-02-09T14:13:53.114Z,5.63
2023-02-09T14:17:24.359Z,9.27
2023-02-09T14:20:33.373Z,6.83
2023-02-09T14:23:44.130Z,8.07
2023-02-09T14:27:24.758Z,6.70
2023-02-09T14:30:36.308Z,7.03
2023-02-09T14:33:50.025Z,6.93
2023-02-09T14:37:02.426Z,6.37
2023-02-09T14:40:25.122Z,7.60
2023-02-09T14:43:34.670Z,7.90
2023-02-09T14:46:53.190Z,9.23
2023-02-09T14:50:02.125Z,7.43
2023-02-09T14:53:16.191Z,5.30
2023-02-09T14:56:31.080Z,6.93
2023-02-09T14:59:40.781Z,6.87
2023-02-09T15:02:50.348Z,6.03
2023-02-09T15:06:02.328Z,6.97
2023-02-09T15:09:21.384Z,7.57
2023-02-09T15:12:31.298Z,7.20
2023-02-09T15:15:41.470Z,8.33
2023-02-09T15:18:50.143Z,13.33
2023-02-09T15:22:07.015Z,7.97
2023-02-09T15:25:19.091Z,7.37
2023-02-09T15:28:30.399Z,7.70
2023-02-09T15:31:40.761Z,8.80
2023-02-09T15:34:49.817Z,6.40
2023-02-09T15:38:01.422Z,6.67
2023-02-09T15:41:30.091Z,9.70
2023-02-09T15:44:55.800Z,9.43
2023-02-09T15:48:10.019Z,12.70
2023-02-09T15:51:18.706Z,8.87
2023-02-09T15:54:34.705Z,8.20
2023-02-09T15:57:42.912Z,13.23
2023-02-09T16:00:52.984Z,10.37
2023-02-09T16:04:13.786Z,11.50
2023-02-09T16:07:29.189Z,16.23
2023-02-09T16:10:39.006Z,17.20
2023-02-09T16:13:48.167Z,8.37
2023-02-09T16:16:57.031Z,9.63
2023-02-09T16:20:08.806Z,7.93
2023-02-09T16:23:24.087Z,6.73
2023-02-09T16:26:34.268Z,9.47
2023-02-09T16:29:42.699Z,11.33
2023-02-09T16:32:52.075Z,16.27
2023-02-09T16:36:05.156Z,19.03
2023-02-09T16:39:18.919Z,26.43
2023-02-09T16:42:29.412Z,22.17
2023-02-09T16:45:44.614Z,23.53
2023-02-09T16:48:56.590Z,25.80
2023-02-09T16:52:16.704Z,18.53
2023-02-09T16:55:29.933Z,19.53
2023-02-09T16:58:40.262Z,14.43
2023-02-09T17:01:49.141Z,16.70
2023-02-09T17:04:58.101Z,18.77
2023-02-09T17:08:17.016Z,17.10
2023-02-09T17:11:29.420Z,23.03
2023-02-09T17:14:38.185Z,32.30
2023-02-09T17:17:52.191Z,31.57
2023-02-09T17:21:06.825Z,27.10
2023-02-09T17:24:18.840Z,25.10
2023-02-09T17:27:27.249Z,26.30
2023-02-09T17:30:36.678Z,23.23
2023-02-09T17:33:47.623Z,20.93
2023-02-09T17:36:56.031Z,28.63
2023-02-09T17:40:06.411Z,12.03
2023-02-09T17:43:14.570Z,10.03
2023-02-09T17:46:23.726Z,14.50
2023-02-09T17:49:32.180Z,11.13
2023-02-09T17:52:40.561Z,7.60
2023-02-09T17:55:51.613Z,9.37
2023-02-09T17:59:03.064Z,10.07
2023-02-09T18:02:17.519Z,10.00
2023-02-09T18:05:28.568Z,9.27
2023-02-09T18:08:36.675Z,12.87
2023-02-09T18:12:02.407Z,16.40
2023-02-09T18:15:23.128Z,20.60
2023-02-09T18:18:31.218Z,20.43
2023-02-09T18:21:40.852Z,29.17
2023-02-09T18:24:49.186Z,17.20
2023-02-09T18:27:58.781Z,22.23
2023-02-09T18:31:07.280Z,42.00
2023-02-09T18:34:16.719Z,55.23
2023-02-09T18:37:24.840Z,21.27
2023-02-09T18:40:34.433Z,20.03
2023-02-09T18:43:44.683Z,20.13
2023-02-09T18:46:52.905Z,19.77
2023-02-09T18:50:01.269Z,16.70
2023-02-09T18:53:09.594Z,29.13
2023-02-09T18:56:20.351Z,20.83
2023-02-09T18:59:32.094Z,13.27
2023-02-09T19:02:40.609Z,8.67
2023-02-09T19:05:49.240Z,25.90
2023-02-09T19:08:57.605Z,17.27
2023-02-09T19:12:09.633Z,16.47
2023-02-09T19:15:22.416Z,16.27
2023-02-09T19:18:31.775Z,17.10
2023-02-09T19:21:39.998Z,16.50
2023-02-09T19:24:51.370Z,18.63
2023-02-09T19:28:04.413Z,16.10
2023-02-09T19:31:15.999Z,19.53
2023-02-09T19:34:25.285Z,23.23
2023-02-09T19:37:33.880Z,16.20
2023-02-09T19:40:43.636Z,20.70
2023-02-09T19:43:56.912Z,22.23
2023-02-09T19:47:06.958Z,21.83
2023-02-09T19:50:18.975Z,17.03
2023-02-09T19:53:28.608Z,22.20
2023-02-09T19:56:36.872Z,20.07
2023-02-09T19:59:45.519Z,22.07
2023-02-09T20:02:55.193Z,21.23
2023-02-09T20:06:09.220Z,20.03
2023-02-09T20:09:17.694Z,14.17
2023-02-09T20:12:25.825Z,14.83
2023-02-09T20:15:42.012Z,11.40
2023-02-09T20:18:55.572Z,13.63
2023-02-09T20:22:03.981Z,16.10
2023-02-09T20:25:15.139Z,11.27
2023-02-09T20:28:24.340Z,9.80
2023-02-09T20:31:38.094Z,8.87
2023-02-09T20:34:48.297Z,10.00
2023-02-09T20:37:56.476Z,7.40
2023-02-09T20:41:09.671Z,8.67
2023-02-09T20:44:35.418Z,10.00
2023-02-09T20:47:43.668Z,8.83
2023-02-09T20:50:53.567Z,13.13
2023-02-09T20:54:02.049Z,9.23
2023-02-09T20:57:10.731Z,10.93
2023-02-09T21:00:19.824Z,11.70
2023-02-09T21:03:27.915Z,10.47
2023-02-09T21:06:39.316Z,14.10
2023-02-09T21:09:48.222Z,15.10
2023-02-09T21:12:56.358Z,13.13
2023-02-09T21:16:04.756Z,13.00
2023-02-09T21:19:12.953Z,10.13
2023-02-09T21:22:22.704Z,13.23
2023-02-09T21:25:31.603Z,15.40
2023-02-09T21:28:39.742Z,15.27
2023-02-09T21:31:47.998Z,17.27
2023-02-09T21:34:56.381Z,15.97
2023-02-09T21:38:05.981Z,12.70
2023-02-09T21:41:32.789Z,13.13
2023-02-09T21:44:40.933Z,12.27
2023-02-09T21:47:49.527Z,15.40
2023-02-09T21:50:57.997Z,13.43
2023-02-09T21:54:07.824Z,12.30
2023-02-09T21:57:16.057Z,13.50
2023-02-09T22:00:24.455Z,13.13
2023-02-09T22:03:32.884Z,14.20
2023-02-09T22:06:41.964Z,13.87
2023-02-09T22:09:51.470Z,16.30
2023-02-09T22:12:59.661Z,14.90
2023-02-09T22:16:09.719Z,15.97
2023-02-09T22:19:17.802Z,12.87
2023-02-09T22:22:25.971Z,13.27
2023-02-09T22:25:36.072Z,14.57
2023-02-09T22:28:44.288Z,13.10
2023-02-09T22:31:52.442Z,14.97
2023-02-09T22:35:00.582Z,15.23
2023-02-09T22:38:08.725Z,13.23
2023-02-09T22:41:24.481Z,14.10
2023-02-09T22:44:33.445Z,18.43
2023-02-09T22:47:41.739Z,18.87
2023-02-09T22:50:49.845Z,13.87
2023-02-09T22:54:00.357Z,14.73
2023-02-09T22:57:09.909Z,11.13
2023-02-09T23:00:19.268Z,11.27
2023-02-09T23:03:27.527Z,9.67
2023-02-09T23:06:35.824Z,7.87
2023-02-09T23:09:44.502Z,7.30
2023-02-09T23:12:53.987Z,7.87
2023-02-09T23:16:11.103Z,10.70
2023-02-09T23:19:21.515Z,8.53
2023-02-09T23:22:29.834Z,8.77
2023-02-09T23:25:38.150Z,8.10
2023-02-09T23:28:48.280Z,6.90
2023-02-09T23:31:56.699Z,8.43
2023-02-09T23:35:05.392Z,10.80
2023-02-09T23:38:13.668Z,10.10
2023-02-09T23:41:24.599Z,6.97
2023-02-09T23:44:34.767Z,8.40
2023-02-09T23:47:43.007Z,7.10
2023-02-09T23:50:51.522Z,7.47
2023-02-09T23:54:03.705Z,5.67
2023-02-09T23:57:12.056Z,7.40
